Main page
METAR-TAF:

METAR-TAF

Airports :

Neuburg Air Base

Neuburg, Germany

latitude: 48-43N, longitude: 011-13E, elevation: 380 m

Current weather observation

The report was made 1 hour and 9 minutes ago, at 21:20 UTC
Wind 5 kt from the Northeast
Temperature 0°C
Humidity 80%
Pressure 1027 hPa
Visibility 10 km or more

METAR: ETSN 172120Z 04005KT 9999 00/M03 Q1027 BLU+

Time: 23:29 (22:29 UTC)

Forecast

The report was made 2 hours and 29 minutes ago, at 20:00 UTC
Forecast valid from 17 at 21 UTC to 18 at 06 UTC
Wind 7 kt from the Northeast
Visibility 10 km or more
Few clouds at a height of 25000 ft

TAF: ETSN 172000Z 1721/1806 05007KT 9999 NSW FEW250 BY ETGL

Weather observations and forecasts of more than 4000 airports (METAR and TAF reports).

The available stations are represented by yellow and red dots on the map.

Hover mouse over dot to see the name of the station.

Then click to see weather observations and forecasts.

To change the map : click on the green buttons with a black cross to zoom in, on the green button with a dash to zoom out, or on the green arrows for adjacent maps.


METAR-TAF: